sensor_id;sensor_type;location;lat;lon;timestamp;temperature;humidity
32097;DHT22;18610;49.916;8.284;2023-04-20T00:02:11;7.70;89.20
32097;DHT22;18610;49.916;8.284;2023-04-20T00:04:41;7.70;90.10
32097;DHT22;18610;49.916;8.284;2023-04-20T00:07:07;7.70;89.60
32097;DHT22;18610;49.916;8.284;2023-04-20T00:09:34;7.70;89.50
32097;DHT22;18610;49.916;8.284;2023-04-20T00:12:01;7.70;90.10
32097;DHT22;18610;49.916;8.284;2023-04-20T00:14:28;7.70;90.60
32097;DHT22;18610;49.916;8.284;2023-04-20T00:16:54;7.70;90.30
32097;DHT22;18610;49.916;8.284;2023-04-20T00:19:21;7.60;89.40
32097;DHT22;18610;49.916;8.284;2023-04-20T00:21:49;7.60;89.40
32097;DHT22;18610;49.916;8.284;2023-04-20T00:24:17;7.60;89.10
32097;DHT22;18610;49.916;8.284;2023-04-20T00:26:44;7.60;89.00
32097;DHT22;18610;49.916;8.284;2023-04-20T00:29:10;7.60;89.40
32097;DHT22;18610;49.916;8.284;2023-04-20T00:31:37;7.60;90.00
32097;DHT22;18610;49.916;8.284;2023-04-20T00:34:04;7.60;90.00
32097;DHT22;18610;49.916;8.284;2023-04-20T00:36:30;7.60;89.90
32097;DHT22;18610;49.916;8.284;2023-04-20T00:38:59;7.50;89.70
32097;DHT22;18610;49.916;8.284;2023-04-20T00:41:25;7.50;89.70
32097;DHT22;18610;49.916;8.284;2023-04-20T00:43:52;7.50;89.90
32097;DHT22;18610;49.916;8.284;2023-04-20T00:46:20;7.50;89.90
32097;DHT22;18610;49.916;8.284;2023-04-20T00:48:47;7.40;90.00
32097;DHT22;18610;49.916;8.284;2023-04-20T00:51:15;7.50;90.20
32097;DHT22;18610;49.916;8.284;2023-04-20T00:53:42;7.50;90.40
32097;DHT22;18610;49.916;8.284;2023-04-20T00:56:14;7.60;90.40
32097;DHT22;18610;49.916;8.284;2023-04-20T00:58:42;7.50;90.50
32097;DHT22;18610;49.916;8.284;2023-04-20T01:01:09;7.50;90.60
32097;DHT22;18610;49.916;8.284;2023-04-20T01:03:38;7.40;90.90
32097;DHT22;18610;49.916;8.284;2023-04-20T01:06:05;7.40;91.20
32097;DHT22;18610;49.916;8.284;2023-04-20T01:08:32;7.30;91.70
32097;DHT22;18610;49.916;8.284;2023-04-20T01:10:59;7.30;92.00
32097;DHT22;18610;49.916;8.284;2023-04-20T01:13:27;7.20;92.00
32097;DHT22;18610;49.916;8.284;2023-04-20T01:15:57;7.20;92.00
32097;DHT22;18610;49.916;8.284;2023-04-20T01:18:24;7.10;92.40
32097;DHT22;18610;49.916;8.284;2023-04-20T01:20:51;7.10;92.50
32097;DHT22;18610;49.916;8.284;2023-04-20T01:23:19;7.00;92.70
32097;DHT22;18610;49.916;8.284;2023-04-20T01:25:46;7.00;92.90
32097;DHT22;18610;49.916;8.284;2023-04-20T01:28:13;6.90;93.20
32097;DHT22;18610;49.916;8.284;2023-04-20T01:30:39;6.90;93.40
32097;DHT22;18610;49.916;8.284;2023-04-20T01:33:06;6.90;93.60
32097;DHT22;18610;49.916;8.284;2023-04-20T01:35:33;6.80;94.10
32097;DHT22;18610;49.916;8.284;2023-04-20T01:38:00;6.70;94.50
32097;DHT22;18610;49.916;8.284;2023-04-20T01:40:28;6.70;94.90
32097;DHT22;18610;49.916;8.284;2023-04-20T01:42:54;6.60;95.10
32097;DHT22;18610;49.916;8.284;2023-04-20T01:45:21;6.50;95.60
32097;DHT22;18610;49.916;8.284;2023-04-20T01:47:48;6.40;95.80
32097;DHT22;18610;49.916;8.284;2023-04-20T01:50:14;6.40;96.00
32097;DHT22;18610;49.916;8.284;2023-04-20T01:52:41;6.40;96.20
32097;DHT22;18610;49.916;8.284;2023-04-20T01:55:08;6.40;96.50
32097;DHT22;18610;49.916;8.284;2023-04-20T01:57:37;6.40;96.60
32097;DHT22;18610;49.916;8.284;2023-04-20T02:00:05;6.40;96.60
32097;DHT22;18610;49.916;8.284;2023-04-20T02:02:32;6.40;96.30
32097;DHT22;18610;49.916;8.284;2023-04-20T02:04:59;6.30;96.20
32097;DHT22;18610;49.916;8.284;2023-04-20T02:07:26;6.30;96.20
32097;DHT22;18610;49.916;8.284;2023-04-20T02:09:53;6.30;96.30
32097;DHT22;18610;49.916;8.284;2023-04-20T02:12:19;6.30;96.60
32097;DHT22;18610;49.916;8.284;2023-04-20T02:14:47;6.30;96.50
32097;DHT22;18610;49.916;8.284;2023-04-20T02:17:14;6.40;96.80
32097;DHT22;18610;49.916;8.284;2023-04-20T02:19:41;6.40;97.00
32097;DHT22;18610;49.916;8.284;2023-04-20T02:22:08;6.40;97.20
32097;DHT22;18610;49.916;8.284;2023-04-20T02:24:34;6.50;97.10
32097;DHT22;18610;49.916;8.284;2023-04-20T02:27:01;6.50;97.10
32097;DHT22;18610;49.916;8.284;2023-04-20T02:29:28;6.50;97.60
32097;DHT22;18610;49.916;8.284;2023-04-20T02:31:56;6.50;97.60
32097;DHT22;18610;49.916;8.284;2023-04-20T02:34:23;6.40;98.00
32097;DHT22;18610;49.916;8.284;2023-04-20T02:36:50;6.50;98.10
32097;DHT22;18610;49.916;8.284;2023-04-20T02:39:17;6.30;98.30
32097;DHT22;18610;49.916;8.284;2023-04-20T02:41:44;6.30;98.50
32097;DHT22;18610;49.916;8.284;2023-04-20T02:44:11;6.30;98.70
32097;DHT22;18610;49.916;8.284;2023-04-20T02:46:37;6.30;98.80
32097;DHT22;18610;49.916;8.284;2023-04-20T02:49:05;6.30;98.80
32097;DHT22;18610;49.916;8.284;2023-04-20T02:51:32;6.30;98.80
32097;DHT22;18610;49.916;8.284;2023-04-20T02:53:59;6.30;98.70
32097;DHT22;18610;49.916;8.284;2023-04-20T02:56:25;6.30;98.60
32097;DHT22;18610;49.916;8.284;2023-04-20T02:58:54;6.40;98.50
32097;DHT22;18610;49.916;8.284;2023-04-20T03:01:21;6.40;99.10
32097;DHT22;18610;49.916;8.284;2023-04-20T03:03:47;6.30;99.30
32097;DHT22;18610;49.916;8.284;2023-04-20T03:06:16;6.20;99.60
32097;DHT22;18610;49.916;8.284;2023-04-20T03:08:42;6.10;99.90
32097;DHT22;18610;49.916;8.284;2023-04-20T03:11:09;6.00;99.90
32097;DHT22;18610;49.916;8.284;2023-04-20T03:13:36;5.90;99.90
32097;DHT22;18610;49.916;8.284;2023-04-20T03:16:04;5.80;99.90
32097;DHT22;18610;49.916;8.284;2023-04-20T03:18:30;5.70;99.90
32097;DHT22;18610;49.916;8.284;2023-04-20T03:20:58;5.80;99.90
32097;DHT22;18610;49.916;8.284;2023-04-20T03:23:26;5.70;99.90
32097;DHT22;18610;49.916;8.284;2023-04-20T03:25:52;5.70;99.90
32097;DHT22;18610;49.916;8.284;2023-04-20T03:28:19;5.70;99.90
32097;DHT22;18610;49.916;8.284;2023-04-20T03:30:46;5.60;99.90
32097;DHT22;18610;49.916;8.284;2023-04-20T03:33:12;5.60;99.90
32097;DHT22;18610;49.916;8.284;2023-04-20T03:35:39;5.60;99.90
32097;DHT22;18610;49.916;8.284;2023-04-20T03:38:07;5.60;99.90
32097;DHT22;18610;49.916;8.284;2023-04-20T03:40:35;5.50;99.90
32097;DHT22;18610;49.916;8.284;2023-04-20T03:43:02;5.50;99.90
32097;DHT22;18610;49.916;8.284;2023-04-20T03:45:29;5.50;99.90
32097;DHT22;18610;49.916;8.284;2023-04-20T03:47:55;5.60;99.90
32097;DHT22;18610;49.916;8.284;2023-04-20T03:50:22;5.60;99.90
32097;DHT22;18610;49.916;8.284;2023-04-20T03:52:49;5.60;99.90
32097;DHT22;18610;49.916;8.284;2023-04-20T03:55:15;5.70;99.90
32097;DHT22;18610;49.916;8.284;2023-04-20T03:57:44;5.70;99.90
32097;DHT22;18610;49.916;8.284;2023-04-20T04:00:12;5.80;99.90
32097;DHT22;18610;49.916;8.284;2023-04-20T04:02:39;5.80;99.90
32097;DHT22;18610;49.916;8.284;2023-04-20T04:05:06;5.90;99.90
32097;DHT22;18610;49.916;8.284;2023-04-20T04:07:33;5.90;99.90
32097;DHT22;18610;49.916;8.284;2023-04-20T04:09:59;6.00;99.90
32097;DHT22;18610;49.916;8.284;2023-04-20T04:12:29;6.10;99.90
32097;DHT22;18610;49.916;8.284;2023-04-20T04:14:57;6.20;99.90
32097;DHT22;18610;49.916;8.284;2023-04-20T04:17:24;6.20;99.90
32097;DHT22;18610;49.916;8.284;2023-04-20T04:19:50;6.30;99.90
32097;DHT22;18610;49.916;8.284;2023-04-20T04:22:17;6.30;99.90
32097;DHT22;18610;49.916;8.284;2023-04-20T04:24:44;6.40;99.90
32097;DHT22;18610;49.916;8.284;2023-04-20T04:27:11;6.50;99.90
32097;DHT22;18610;49.916;8.284;2023-04-20T04:29:39;6.50;99.90
32097;DHT22;18610;49.916;8.284;2023-04-20T04:32:08;6.50;99.90
32097;DHT22;18610;49.916;8.284;2023-04-20T04:34:36;6.50;99.90
32097;DHT22;18610;49.916;8.284;2023-04-20T04:37:05;6.60;99.90
32097;DHT22;18610;49.916;8.284;2023-04-20T04:39:32;6.60;99.90
32097;DHT22;18610;49.916;8.284;2023-04-20T04:41:59;6.70;99.90
32097;DHT22;18610;49.916;8.284;2023-04-20T04:44:26;6.70;99.90
32097;DHT22;18610;49.916;8.284;2023-04-20T04:46:53;6.70;99.90
32097;DHT22;18610;49.916;8.284;2023-04-20T04:49:21;6.70;99.90
32097;DHT22;18610;49.916;8.284;2023-04-20T04:51:49;6.80;99.90
32097;DHT22;18610;49.916;8.284;2023-04-20T04:54:15;6.80;99.90
32097;DHT22;18610;49.916;8.284;2023-04-20T04:56:42;6.80;99.90
32097;DHT22;18610;49.916;8.284;2023-04-20T04:59:09;6.90;99.90
32097;DHT22;18610;49.916;8.284;2023-04-20T05:01:35;6.90;99.90
32097;DHT22;18610;49.916;8.284;2023-04-20T05:04:02;6.90;99.90
32097;DHT22;18610;49.916;8.284;2023-04-20T05:06:30;6.90;99.90
32097;DHT22;18610;49.916;8.284;2023-04-20T05:08:57;6.90;99.90
32097;DHT22;18610;49.916;8.284;2023-04-20T05:11:24;7.00;99.90
32097;DHT22;18610;49.916;8.284;2023-04-20T05:13:50;7.00;99.90
32097;DHT22;18610;49.916;8.284;2023-04-20T05:16:17;7.00;99.90
32097;DHT22;18610;49.916;8.284;2023-04-20T05:18:44;7.10;99.90
32097;DHT22;18610;49.916;8.284;2023-04-20T05:21:10;7.10;99.90
32097;DHT22;18610;49.916;8.284;2023-04-20T05:23:38;7.10;99.90
32097;DHT22;18610;49.916;8.284;2023-04-20T05:26:05;7.10;99.90
32097;DHT22;18610;49.916;8.284;2023-04-20T05:28:32;7.10;99.90
32097;DHT22;18610;49.916;8.284;2023-04-20T05:30:59;7.10;99.90
32097;DHT22;18610;49.916;8.284;2023-04-20T05:33:26;7.20;99.90
32097;DHT22;18610;49.916;8.284;2023-04-20T05:35:54;7.20;99.90
32097;DHT22;18610;49.916;8.284;2023-04-20T05:38:22;7.20;99.90
32097;DHT22;18610;49.916;8.284;2023-04-20T05:40:50;7.30;99.90
32097;DHT22;18610;49.916;8.284;2023-04-20T05:43:16;7.30;99.90
32097;DHT22;18610;49.916;8.284;2023-04-20T05:45:43;7.30;99.90
32097;DHT22;18610;49.916;8.284;2023-04-20T05:48:10;7.40;99.90
32097;DHT22;18610;49.916;8.284;2023-04-20T05:50:37;7.40;99.90
32097;DHT22;18610;49.916;8.284;2023-04-20T05:53:04;7.50;99.90
32097;DHT22;18610;49.916;8.284;2023-04-20T05:55:31;7.50;99.90
32097;DHT22;18610;49.916;8.284;2023-04-20T05:57:59;7.50;99.90
32097;DHT22;18610;49.916;8.284;2023-04-20T06:00:26;7.60;99.90
32097;DHT22;18610;49.916;8.284;2023-04-20T06:02:52;7.60;99.90
32097;DHT22;18610;49.916;8.284;2023-04-20T06:05:19;7.70;99.90
32097;DHT22;18610;49.916;8.284;2023-04-20T06:07:46;7.70;99.90
32097;DHT22;18610;49.916;8.284;2023-04-20T06:10:13;7.80;99.90
32097;DHT22;18610;49.916;8.284;2023-04-20T06:12:40;7.70;99.90
32097;DHT22;18610;49.916;8.284;2023-04-20T06:15:09;7.70;99.90
32097;DHT22;18610;49.916;8.284;2023-04-20T06:17:36;7.80;99.90
32097;DHT22;18610;49.916;8.284;2023-04-20T06:20:06;7.80;99.90
32097;DHT22;18610;49.916;8.284;2023-04-20T06:22:33;7.70;99.90
32097;DHT22;18610;49.916;8.284;2023-04-20T06:25:00;7.70;99.90
32097;DHT22;18610;49.916;8.284;2023-04-20T06:27:27;7.70;99.90
32097;DHT22;18610;49.916;8.284;2023-04-20T06:29:54;7.70;99.90
32097;DHT22;18610;49.916;8.284;2023-04-20T06:32:22;7.80;99.90
32097;DHT22;18610;49.916;8.284;2023-04-20T06:34:49;7.80;99.90
32097;DHT22;18610;49.916;8.284;2023-04-20T06:37:17;7.80;99.90
32097;DHT22;18610;49.916;8.284;2023-04-20T06:39:43;7.80;99.90
32097;DHT22;18610;49.916;8.284;2023-04-20T06:42:10;7.80;99.90
32097;DHT22;18610;49.916;8.284;2023-04-20T06:44:38;7.80;99.90
32097;DHT22;18610;49.916;8.284;2023-04-20T06:47:04;7.80;99.90
32097;DHT22;18610;49.916;8.284;2023-04-20T06:49:33;7.90;99.90
32097;DHT22;18610;49.916;8.284;2023-04-20T06:52:01;7.80;99.90
32097;DHT22;18610;49.916;8.284;2023-04-20T06:54:27;7.80;99.90
32097;DHT22;18610;49.916;8.284;2023-04-20T06:56:55;7.80;99.90
32097;DHT22;18610;49.916;8.284;2023-04-20T06:59:21;7.80;99.90
32097;DHT22;18610;49.916;8.284;2023-04-20T07:01:48;7.90;99.90
32097;DHT22;18610;49.916;8.284;2023-04-20T07:04:15;7.90;99.90
32097;DHT22;18610;49.916;8.284;2023-04-20T07:06:44;7.90;99.90
32097;DHT22;18610;49.916;8.284;2023-04-20T07:09:10;7.90;99.90
32097;DHT22;18610;49.916;8.284;2023-04-20T07:11:37;7.90;99.90
32097;DHT22;18610;49.916;8.284;2023-04-20T07:14:04;7.90;99.90
32097;DHT22;18610;49.916;8.284;2023-04-20T07:16:31;7.90;99.90
32097;DHT22;18610;49.916;8.284;2023-04-20T07:18:57;7.90;99.90
32097;DHT22;18610;49.916;8.284;2023-04-20T07:21:24;7.90;99.90
32097;DHT22;18610;49.916;8.284;2023-04-20T07:23:53;7.90;99.90
32097;DHT22;18610;49.916;8.284;2023-04-20T07:26:20;7.90;99.90
32097;DHT22;18610;49.916;8.284;2023-04-20T07:28:47;7.90;99.90
32097;DHT22;18610;49.916;8.284;2023-04-20T07:31:14;8.00;99.90
32097;DHT22;18610;49.916;8.284;2023-04-20T07:33:41;8.00;99.90
32097;DHT22;18610;49.916;8.284;2023-04-20T07:36:08;8.00;99.90
32097;DHT22;18610;49.916;8.284;2023-04-20T07:38:35;8.10;99.90
32097;DHT22;18610;49.916;8.284;2023-04-20T07:41:03;8.20;99.90
32097;DHT22;18610;49.916;8.284;2023-04-20T07:43:33;8.30;99.90
32097;DHT22;18610;49.916;8.284;2023-04-20T07:46:00;8.40;99.90
32097;DHT22;18610;49.916;8.284;2023-04-20T07:48:27;8.50;99.90
32097;DHT22;18610;49.916;8.284;2023-04-20T07:50:54;8.70;99.90
32097;DHT22;18610;49.916;8.284;2023-04-20T07:53:21;8.80;99.90
32097;DHT22;18610;49.916;8.284;2023-04-20T07:55:48;8.90;99.90
32097;DHT22;18610;49.916;8.284;2023-04-20T07:58:16;9.00;99.90
32097;DHT22;18610;49.916;8.284;2023-04-20T08:00:44;9.20;99.90
32097;DHT22;18610;49.916;8.284;2023-04-20T08:03:11;9.30;99.90
32097;DHT22;18610;49.916;8.284;2023-04-20T08:05:38;9.30;99.90
32097;DHT22;18610;49.916;8.284;2023-04-20T08:08:05;9.40;99.90
32097;DHT22;18610;49.916;8.284;2023-04-20T08:10:32;9.50;99.90
32097;DHT22;18610;49.916;8.284;2023-04-20T08:12:59;9.70;99.90
32097;DHT22;18610;49.916;8.284;2023-04-20T08:15:27;9.70;99.90
32097;DHT22;18610;49.916;8.284;2023-04-20T08:17:54;9.90;99.90
32097;DHT22;18610;49.916;8.284;2023-04-20T08:20:20;10.00;99.90
32097;DHT22;18610;49.916;8.284;2023-04-20T08:22:47;10.20;99.90
32097;DHT22;18610;49.916;8.284;2023-04-20T08:25:15;10.50;99.90
32097;DHT22;18610;49.916;8.284;2023-04-20T08:27:41;10.80;99.90
32097;DHT22;18610;49.916;8.284;2023-04-20T08:30:09;11.00;99.90
32097;DHT22;18610;49.916;8.284;2023-04-20T08:32:37;11.10;99.90
32097;DHT22;18610;49.916;8.284;2023-04-20T08:35:05;11.10;99.90
32097;DHT22;18610;49.916;8.284;2023-04-20T08:37:33;11.10;99.90
32097;DHT22;18610;49.916;8.284;2023-04-20T08:39:59;11.00;99.90
32097;DHT22;18610;49.916;8.284;2023-04-20T08:42:26;11.00;99.90
32097;DHT22;18610;49.916;8.284;2023-04-20T08:44:53;10.90;99.90
32097;DHT22;18610;49.916;8.284;2023-04-20T08:47:20;10.90;99.90
32097;DHT22;18610;49.916;8.284;2023-04-20T08:49:54;10.90;99.90
32097;DHT22;18610;49.916;8.284;2023-04-20T08:52:21;10.90;99.90
32097;DHT22;18610;49.916;8.284;2023-04-20T08:54:47;11.00;99.90
32097;DHT22;18610;49.916;8.284;2023-04-20T08:57:14;11.10;99.90
32097;DHT22;18610;49.916;8.284;2023-04-20T08:59:41;11.10;99.90
32097;DHT22;18610;49.916;8.284;2023-04-20T09:02:08;11.20;99.90
32097;DHT22;18610;49.916;8.284;2023-04-20T09:04:36;11.30;99.90
32097;DHT22;18610;49.916;8.284;2023-04-20T09:07:05;11.30;99.90
32097;DHT22;18610;49.916;8.284;2023-04-20T09:09:32;11.30;99.90
32097;DHT22;18610;49.916;8.284;2023-04-20T09:11:59;11.40;99.90
32097;DHT22;18610;49.916;8.284;2023-04-20T09:14:28;11.40;99.90
32097;DHT22;18610;49.916;8.284;2023-04-20T09:16:57;11.50;99.90
32097;DHT22;18610;49.916;8.284;2023-04-20T09:19:27;11.60;99.90
32097;DHT22;18610;49.916;8.284;2023-04-20T09:21:56;11.70;99.90
32097;DHT22;18610;49.916;8.284;2023-04-20T09:24:31;11.90;99.90
32097;DHT22;18610;49.916;8.284;2023-04-20T09:26:58;12.10;99.90
32097;DHT22;18610;49.916;8.284;2023-04-20T09:29:25;12.20;99.90
32097;DHT22;18610;49.916;8.284;2023-04-20T09:31:53;12.40;99.90
32097;DHT22;18610;49.916;8.284;2023-04-20T09:34:21;12.50;99.90
32097;DHT22;18610;49.916;8.284;2023-04-20T09:36:50;12.70;99.90
32097;DHT22;18610;49.916;8.284;2023-04-20T09:39:20;12.80;99.90
32097;DHT22;18610;49.916;8.284;2023-04-20T09:41:49;12.90;99.90
32097;DHT22;18610;49.916;8.284;2023-04-20T09:44:17;13.00;99.90
32097;DHT22;18610;49.916;8.284;2023-04-20T09:46:45;13.20;99.90
32097;DHT22;18610;49.916;8.284;2023-04-20T09:49:13;13.30;99.80
32097;DHT22;18610;49.916;8.284;2023-04-20T09:51:41;13.40;99.30
32097;DHT22;18610;49.916;8.284;2023-04-20T09:54:09;13.50;99.30
32097;DHT22;18610;49.916;8.284;2023-04-20T09:56:37;13.60;98.90
32097;DHT22;18610;49.916;8.284;2023-04-20T09:59:05;13.70;98.60
32097;DHT22;18610;49.916;8.284;2023-04-20T10:01:33;13.90;98.60
32097;DHT22;18610;49.916;8.284;2023-04-20T10:04:05;14.00;98.40
32097;DHT22;18610;49.916;8.284;2023-04-20T10:06:33;14.20;98.40
32097;DHT22;18610;49.916;8.284;2023-04-20T10:09:02;14.50;98.00
32097;DHT22;18610;49.916;8.284;2023-04-20T10:11:31;15.00;97.80
32097;DHT22;18610;49.916;8.284;2023-04-20T10:14:12;15.40;96.60
32097;DHT22;18610;49.916;8.284;2023-04-20T10:16:40;16.00;94.80
32097;DHT22;18610;49.916;8.284;2023-04-20T10:19:07;16.50;93.70
32097;DHT22;18610;49.916;8.284;2023-04-20T10:21:44;16.80;92.20
32097;DHT22;18610;49.916;8.284;2023-04-20T10:24:11;17.00;90.50
32097;DHT22;18610;49.916;8.284;2023-04-20T10:26:40;17.00;90.10
32097;DHT22;18610;49.916;8.284;2023-04-20T10:29:07;17.10;89.40
32097;DHT22;18610;49.916;8.284;2023-04-20T10:31:37;17.20;89.50
32097;DHT22;18610;49.916;8.284;2023-04-20T10:34:07;17.40;89.70
32097;DHT22;18610;49.916;8.284;2023-04-20T10:36:35;17.50;87.70
32097;DHT22;18610;49.916;8.284;2023-04-20T10:39:13;17.50;82.20
32097;DHT22;18610;49.916;8.284;2023-04-20T10:41:51;17.20;83.00
32097;DHT22;18610;49.916;8.284;2023-04-20T10:44:19;17.00;82.70
32097;DHT22;18610;49.916;8.284;2023-04-20T10:46:47;16.80;84.00
32097;DHT22;18610;49.916;8.284;2023-04-20T10:49:16;16.60;85.20
32097;DHT22;18610;49.916;8.284;2023-04-20T10:51:47;16.50;86.80
32097;DHT22;18610;49.916;8.284;2023-04-20T10:54:14;16.60;87.40
32097;DHT22;18610;49.916;8.284;2023-04-20T10:56:42;16.60;85.20
32097;DHT22;18610;49.916;8.284;2023-04-20T10:59:10;16.50;84.80
32097;DHT22;18610;49.916;8.284;2023-04-20T11:01:37;16.40;83.70
32097;DHT22;18610;49.916;8.284;2023-04-20T11:04:05;16.40;85.50
32097;DHT22;18610;49.916;8.284;2023-04-20T11:06:33;16.30;83.30
32097;DHT22;18610;49.916;8.284;2023-04-20T11:09:00;16.60;84.20
32097;DHT22;18610;49.916;8.284;2023-04-20T11:11:28;16.80;83.70
32097;DHT22;18610;49.916;8.284;2023-04-20T11:14:04;16.90;81.20
32097;DHT22;18610;49.916;8.284;2023-04-20T11:16:33;17.00;78.40
32097;DHT22;18610;49.916;8.284;2023-04-20T11:19:00;17.50;77.00
32097;DHT22;18610;49.916;8.284;2023-04-20T11:21:36;17.90;76.60
32097;DHT22;18610;49.916;8.284;2023-04-20T11:24:04;17.90;73.50
32097;DHT22;18610;49.916;8.284;2023-04-20T11:26:35;17.80;73.40
32097;DHT22;18610;49.916;8.284;2023-04-20T11:29:02;17.60;72.70
32097;DHT22;18610;49.916;8.284;2023-04-20T11:31:29;17.50;74.40
32097;DHT22;18610;49.916;8.284;2023-04-20T11:33:56;17.30;75.20
32097;DHT22;18610;49.916;8.284;2023-04-20T11:36:24;17.00;75.20
32097;DHT22;18610;49.916;8.284;2023-04-20T11:38:52;16.70;75.90
32097;DHT22;18610;49.916;8.284;2023-04-20T11:41:20;16.40;76.40
32097;DHT22;18610;49.916;8.284;2023-04-20T11:43:48;16.10;77.10
32097;DHT22;18610;49.916;8.284;2023-04-20T11:46:16;15.80;78.20
32097;DHT22;18610;49.916;8.284;2023-04-20T11:48:43;15.60;79.90
32097;DHT22;18610;49.916;8.284;2023-04-20T11:51:10;15.40;80.90
32097;DHT22;18610;49.916;8.284;2023-04-20T11:53:37;15.30;81.40
32097;DHT22;18610;49.916;8.284;2023-04-20T11:56:06;15.20;82.60
32097;DHT22;18610;49.916;8.284;2023-04-20T11:58:33;15.00;83.10
32097;DHT22;18610;49.916;8.284;2023-04-20T12:00:59;14.80;84.10
32097;DHT22;18610;49.916;8.284;2023-04-20T12:03:26;14.60;84.60
32097;DHT22;18610;49.916;8.284;2023-04-20T12:05:53;14.50;84.00
32097;DHT22;18610;49.916;8.284;2023-04-20T12:08:20;14.40;84.00
32097;DHT22;18610;49.916;8.284;2023-04-20T12:10:48;14.40;84.70
32097;DHT22;18610;49.916;8.284;2023-04-20T12:13:16;14.40;84.60
32097;DHT22;18610;49.916;8.284;2023-04-20T12:15:43;14.40;84.60
32097;DHT22;18610;49.916;8.284;2023-04-20T12:18:09;14.40;84.40
32097;DHT22;18610;49.916;8.284;2023-04-20T12:20:36;14.30;84.60
32097;DHT22;18610;49.916;8.284;2023-04-20T12:23:03;14.30;85.00
32097;DHT22;18610;49.916;8.284;2023-04-20T12:25:30;14.50;86.80
32097;DHT22;18610;49.916;8.284;2023-04-20T12:27:56;14.60;86.90
32097;DHT22;18610;49.916;8.284;2023-04-20T12:30:25;14.60;86.00
32097;DHT22;18610;49.916;8.284;2023-04-20T12:32:51;14.50;83.30
32097;DHT22;18610;49.916;8.284;2023-04-20T12:35:18;14.40;83.60
32097;DHT22;18610;49.916;8.284;2023-04-20T12:37:45;14.30;84.30
32097;DHT22;18610;49.916;8.284;2023-04-20T12:40:12;14.20;85.30
32097;DHT22;18610;49.916;8.284;2023-04-20T12:42:39;14.20;85.50
32097;DHT22;18610;49.916;8.284;2023-04-20T12:45:07;14.10;85.60
32097;DHT22;18610;49.916;8.284;2023-04-20T12:47:35;14.00;86.70
32097;DHT22;18610;49.916;8.284;2023-04-20T12:50:02;13.90;87.90
32097;DHT22;18610;49.916;8.284;2023-04-20T12:52:31;13.90;89.10
32097;DHT22;18610;49.916;8.284;2023-04-20T12:54:58;14.00;88.50
32097;DHT22;18610;49.916;8.284;2023-04-20T12:57:25;13.90;88.50
32097;DHT22;18610;49.916;8.284;2023-04-20T12:59:52;13.90;89.50
32097;DHT22;18610;49.916;8.284;2023-04-20T13:02:20;14.00;90.00
32097;DHT22;18610;49.916;8.284;2023-04-20T13:04:48;14.00;90.10
32097;DHT22;18610;49.916;8.284;2023-04-20T13:07:16;14.10;90.10
32097;DHT22;18610;49.916;8.284;2023-04-20T13:09:43;14.20;88.30
32097;DHT22;18610;49.916;8.284;2023-04-20T13:12:09;14.30;87.50
32097;DHT22;18610;49.916;8.284;2023-04-20T13:14:36;14.40;88.90
32097;DHT22;18610;49.916;8.284;2023-04-20T13:17:05;14.50;90.00
32097;DHT22;18610;49.916;8.284;2023-04-20T13:19:32;14.60;89.00
32097;DHT22;18610;49.916;8.284;2023-04-20T13:22:00;14.60;88.60
32097;DHT22;18610;49.916;8.284;2023-04-20T13:24:28;14.70;88.10
32097;DHT22;18610;49.916;8.284;2023-04-20T13:26:55;14.80;87.10
32097;DHT22;18610;49.916;8.284;2023-04-20T13:29:22;14.60;86.00
32097;DHT22;18610;49.916;8.284;2023-04-20T13:31:49;14.60;83.20
32097;DHT22;18610;49.916;8.284;2023-04-20T13:34:16;14.60;83.70
32097;DHT22;18610;49.916;8.284;2023-04-20T13:36:43;14.50;85.40
32097;DHT22;18610;49.916;8.284;2023-04-20T13:39:12;14.30;86.50
32097;DHT22;18610;49.916;8.284;2023-04-20T13:41:39;14.10;85.90
32097;DHT22;18610;49.916;8.284;2023-04-20T13:44:05;14.00;87.20
32097;DHT22;18610;49.916;8.284;2023-04-20T13:46:40;13.80;88.70
32097;DHT22;18610;49.916;8.284;2023-04-20T13:49:07;13.70;87.20
32097;DHT22;18610;49.916;8.284;2023-04-20T13:51:34;13.50;86.60
32097;DHT22;18610;49.916;8.284;2023-04-20T13:54:01;13.40;85.70
32097;DHT22;18610;49.916;8.284;2023-04-20T13:56:29;13.30;84.50
32097;DHT22;18610;49.916;8.284;2023-04-20T13:58:56;13.20;83.10
32097;DHT22;18610;49.916;8.284;2023-04-20T14:01:23;13.10;83.30
32097;DHT22;18610;49.916;8.284;2023-04-20T14:03:51;12.90;84.90
32097;DHT22;18610;49.916;8.284;2023-04-20T14:06:18;12.80;87.40
32097;DHT22;18610;49.916;8.284;2023-04-20T14:08:44;12.70;90.30
32097;DHT22;18610;49.916;8.284;2023-04-20T14:11:14;12.70;90.40
32097;DHT22;18610;49.916;8.284;2023-04-20T14:13:42;12.80;90.10
32097;DHT22;18610;49.916;8.284;2023-04-20T14:16:10;12.90;88.30
32097;DHT22;18610;49.916;8.284;2023-04-20T14:18:38;13.00;87.20
32097;DHT22;18610;49.916;8.284;2023-04-20T14:21:05;13.20;86.30
32097;DHT22;18610;49.916;8.284;2023-04-20T14:23:31;13.40;86.60
32097;DHT22;18610;49.916;8.284;2023-04-20T14:25:58;13.60;86.80
32097;DHT22;18610;49.916;8.284;2023-04-20T14:28:25;13.80;83.50
32097;DHT22;18610;49.916;8.284;2023-04-20T14:30:53;13.90;80.20
32097;DHT22;18610;49.916;8.284;2023-04-20T14:33:20;13.90;81.00
32097;DHT22;18610;49.916;8.284;2023-04-20T14:35:46;13.90;80.30
32097;DHT22;18610;49.916;8.284;2023-04-20T14:38:14;14.00;81.50
32097;DHT22;18610;49.916;8.284;2023-04-20T14:40:41;14.00;77.80
32097;DHT22;18610;49.916;8.284;2023-04-20T14:43:08;13.90;80.50
32097;DHT22;18610;49.916;8.284;2023-04-20T14:45:34;13.90;80.20
32097;DHT22;18610;49.916;8.284;2023-04-20T14:48:03;13.80;80.10
32097;DHT22;18610;49.916;8.284;2023-04-20T14:50:30;13.80;79.90
32097;DHT22;18610;49.916;8.284;2023-04-20T14:52:57;13.80;80.10
32097;DHT22;18610;49.916;8.284;2023-04-20T14:55:24;13.80;84.20
32097;DHT22;18610;49.916;8.284;2023-04-20T14:57:54;13.70;85.30
32097;DHT22;18610;49.916;8.284;2023-04-20T15:00:21;13.70;86.50
32097;DHT22;18610;49.916;8.284;2023-04-20T15:02:49;13.60;87.20
32097;DHT22;18610;49.916;8.284;2023-04-20T15:05:17;13.60;89.20
32097;DHT22;18610;49.916;8.284;2023-04-20T15:07:43;13.60;88.80
32097;DHT22;18610;49.916;8.284;2023-04-20T15:10:10;13.50;90.20
32097;DHT22;18610;49.916;8.284;2023-04-20T15:12:39;13.40;90.70
32097;DHT22;18610;49.916;8.284;2023-04-20T15:15:06;13.40;90.70
32097;DHT22;18610;49.916;8.284;2023-04-20T15:17:33;13.30;91.90
32097;DHT22;18610;49.916;8.284;2023-04-20T15:20:00;13.20;91.80
32097;DHT22;18610;49.916;8.284;2023-04-20T15:22:29;13.10;92.50
32097;DHT22;18610;49.916;8.284;2023-04-20T15:24:56;13.00;93.30
32097;DHT22;18610;49.916;8.284;2023-04-20T15:27:23;12.90;93.40
32097;DHT22;18610;49.916;8.284;2023-04-20T15:29:50;12.90;93.10
32097;DHT22;18610;49.916;8.284;2023-04-20T15:32:17;12.80;93.50
32097;DHT22;18610;49.916;8.284;2023-04-20T15:34:43;12.80;94.20
32097;DHT22;18610;49.916;8.284;2023-04-20T15:37:10;12.70;95.80
32097;DHT22;18610;49.916;8.284;2023-04-20T15:39:38;12.70;93.00
32097;DHT22;18610;49.916;8.284;2023-04-20T15:42:05;12.60;92.00